sensor_id;sensor_type;location;lat;lon;timestamp;P1;durP1;ratioP1;P2;durP2;ratioP2
10582;SDS011;33679;51.218;6.786;2023-05-10T00:00:29;9.70;;;5.93;;
10582;SDS011;33679;51.218;6.786;2023-05-10T00:03:02;8.43;;;5.90;;
10582;SDS011;33679;51.218;6.786;2023-05-10T00:05:37;9.97;;;6.50;;
10582;SDS011;33679;51.218;6.786;2023-05-10T00:08:12;10.10;;;6.40;;
10582;SDS011;33679;51.218;6.786;2023-05-10T00:10:44;11.97;;;7.30;;
10582;SDS011;33679;51.218;6.786;2023-05-10T00:13:18;11.07;;;6.63;;
10582;SDS011;33679;51.218;6.786;2023-05-10T00:15:50;11.40;;;7.27;;
10582;SDS011;33679;51.218;6.786;2023-05-10T00:18:22;12.50;;;7.90;;
10582;SDS011;33679;51.218;6.786;2023-05-10T00:20:55;12.80;;;9.03;;
10582;SDS011;33679;51.218;6.786;2023-05-10T00:23:27;14.80;;;9.03;;
10582;SDS011;33679;51.218;6.786;2023-05-10T00:25:59;14.33;;;8.30;;
10582;SDS011;33679;51.218;6.786;2023-05-10T00:28:33;14.60;;;9.10;;
10582;SDS011;33679;51.218;6.786;2023-05-10T00:31:06;16.90;;;9.70;;
10582;SDS011;33679;51.218;6.786;2023-05-10T00:33:40;18.90;;;10.80;;
10582;SDS011;33679;51.218;6.786;2023-05-10T00:36:13;17.00;;;9.70;;
10582;SDS011;33679;51.218;6.786;2023-05-10T00:38:45;16.30;;;10.53;;
10582;SDS011;33679;51.218;6.786;2023-05-10T00:41:17;11.90;;;7.20;;
10582;SDS011;33679;51.218;6.786;2023-05-10T00:43:55;12.63;;;8.33;;
10582;SDS011;33679;51.218;6.786;2023-05-10T00:46:27;11.40;;;7.13;;
10582;SDS011;33679;51.218;6.786;2023-05-10T00:49:00;11.00;;;7.50;;
10582;SDS011;33679;51.218;6.786;2023-05-10T00:51:34;9.30;;;5.80;;
10582;SDS011;33679;51.218;6.786;2023-05-10T00:54:09;10.23;;;6.80;;
10582;SDS011;33679;51.218;6.786;2023-05-10T00:56:43;11.13;;;7.00;;
10582;SDS011;33679;51.218;6.786;2023-05-10T00:59:20;11.33;;;6.20;;
10582;SDS011;33679;51.218;6.786;2023-05-10T01:01:53;6.93;;;5.00;;
10582;SDS011;33679;51.218;6.786;2023-05-10T01:04:26;8.93;;;5.30;;
10582;SDS011;33679;51.218;6.786;2023-05-10T01:07:01;6.70;;;4.40;;
10582;SDS011;33679;51.218;6.786;2023-05-10T01:09:33;6.40;;;4.30;;
10582;SDS011;33679;51.218;6.786;2023-05-10T01:12:07;5.80;;;4.20;;
10582;SDS011;33679;51.218;6.786;2023-05-10T01:14:41;10.63;;;4.80;;
10582;SDS011;33679;51.218;6.786;2023-05-10T01:17:13;6.87;;;5.10;;
10582;SDS011;33679;51.218;6.786;2023-05-10T01:19:47;6.30;;;4.70;;
10582;SDS011;33679;51.218;6.786;2023-05-10T01:22:25;7.73;;;4.90;;
10582;SDS011;33679;51.218;6.786;2023-05-10T01:25:25;6.53;;;5.10;;
10582;SDS011;33679;51.218;6.786;2023-05-10T01:28:17;7.33;;;4.97;;
10582;SDS011;33679;51.218;6.786;2023-05-10T01:31:20;9.70;;;5.77;;
10582;SDS011;33679;51.218;6.786;2023-05-10T01:34:05;8.07;;;5.10;;
10582;SDS011;33679;51.218;6.786;2023-05-10T01:36:43;7.63;;;5.40;;
10582;SDS011;33679;51.218;6.786;2023-05-10T01:39:32;8.87;;;5.27;;
10582;SDS011;33679;51.218;6.786;2023-05-10T01:42:11;8.67;;;5.33;;
10582;SDS011;33679;51.218;6.786;2023-05-10T01:44:49;7.87;;;5.77;;
10582;SDS011;33679;51.218;6.786;2023-05-10T01:47:29;8.63;;;5.40;;
10582;SDS011;33679;51.218;6.786;2023-05-10T01:50:09;9.40;;;5.70;;
10582;SDS011;33679;51.218;6.786;2023-05-10T01:52:49;9.07;;;5.47;;
10582;SDS011;33679;51.218;6.786;2023-05-10T01:55:28;8.60;;;5.40;;
10582;SDS011;33679;51.218;6.786;2023-05-10T01:58:05;7.47;;;5.33;;
10582;SDS011;33679;51.218;6.786;2023-05-10T02:00:43;8.63;;;5.60;;
10582;SDS011;33679;51.218;6.786;2023-05-10T02:03:16;6.07;;;4.50;;
10582;SDS011;33679;51.218;6.786;2023-05-10T02:05:53;8.27;;;5.37;;
10582;SDS011;33679;51.218;6.786;2023-05-10T02:08:27;9.60;;;5.80;;
10582;SDS011;33679;51.218;6.786;2023-05-10T02:11:01;6.67;;;4.90;;
10582;SDS011;33679;51.218;6.786;2023-05-10T02:13:35;6.27;;;4.37;;
10582;SDS011;33679;51.218;6.786;2023-05-10T02:16:10;7.93;;;4.43;;
10582;SDS011;33679;51.218;6.786;2023-05-10T02:18:47;6.10;;;4.20;;
10582;SDS011;33679;51.218;6.786;2023-05-10T02:21:23;5.43;;;4.40;;
10582;SDS011;33679;51.218;6.786;2023-05-10T02:23:57;7.40;;;4.57;;
10582;SDS011;33679;51.218;6.786;2023-05-10T02:26:33;5.23;;;3.90;;
10582;SDS011;33679;51.218;6.786;2023-05-10T02:29:06;7.43;;;4.73;;
10582;SDS011;33679;51.218;6.786;2023-05-10T02:31:44;5.00;;;3.70;;
10582;SDS011;33679;51.218;6.786;2023-05-10T02:34:17;5.87;;;4.10;;
10582;SDS011;33679;51.218;6.786;2023-05-10T02:36:51;6.70;;;4.43;;
10582;SDS011;33679;51.218;6.786;2023-05-10T02:39:24;6.37;;;4.83;;
10582;SDS011;33679;51.218;6.786;2023-05-10T02:42:01;5.73;;;4.17;;
10582;SDS011;33679;51.218;6.786;2023-05-10T02:44:35;7.20;;;4.40;;
10582;SDS011;33679;51.218;6.786;2023-05-10T02:47:11;5.70;;;4.20;;
10582;SDS011;33679;51.218;6.786;2023-05-10T02:49:43;6.13;;;4.10;;
10582;SDS011;33679;51.218;6.786;2023-05-10T02:52:21;6.97;;;5.23;;
10582;SDS011;33679;51.218;6.786;2023-05-10T02:54:58;5.60;;;4.00;;
10582;SDS011;33679;51.218;6.786;2023-05-10T02:57:33;7.23;;;4.83;;
10582;SDS011;33679;51.218;6.786;2023-05-10T03:00:06;6.67;;;4.17;;
10582;SDS011;33679;51.218;6.786;2023-05-10T03:02:40;8.00;;;6.10;;
10582;SDS011;33679;51.218;6.786;2023-05-10T03:05:12;7.67;;;4.90;;
10582;SDS011;33679;51.218;6.786;2023-05-10T03:07:49;6.70;;;5.50;;
10582;SDS011;33679;51.218;6.786;2023-05-10T03:10:26;5.63;;;4.63;;
10582;SDS011;33679;51.218;6.786;2023-05-10T03:13:05;6.80;;;4.80;;
10582;SDS011;33679;51.218;6.786;2023-05-10T03:15:47;6.67;;;4.57;;
10582;SDS011;33679;51.218;6.786;2023-05-10T03:18:28;7.90;;;5.30;;
10582;SDS011;33679;51.218;6.786;2023-05-10T03:21:07;9.23;;;4.80;;
10582;SDS011;33679;51.218;6.786;2023-05-10T03:23:48;8.03;;;4.60;;
10582;SDS011;33679;51.218;6.786;2023-05-10T03:26:28;8.00;;;5.03;;
10582;SDS011;33679;51.218;6.786;2023-05-10T03:29:09;6.07;;;4.10;;
10582;SDS011;33679;51.218;6.786;2023-05-10T03:31:42;7.43;;;4.80;;
10582;SDS011;33679;51.218;6.786;2023-05-10T03:34:16;6.97;;;4.43;;
10582;SDS011;33679;51.218;6.786;2023-05-10T03:36:48;7.07;;;4.57;;
10582;SDS011;33679;51.218;6.786;2023-05-10T03:39:25;4.93;;;3.90;;
10582;SDS011;33679;51.218;6.786;2023-05-10T03:42:01;5.80;;;4.60;;
10582;SDS011;33679;51.218;6.786;2023-05-10T03:44:36;8.90;;;4.50;;
10582;SDS011;33679;51.218;6.786;2023-05-10T03:47:08;6.00;;;3.93;;
10582;SDS011;33679;51.218;6.786;2023-05-10T03:49:41;8.60;;;5.40;;
10582;SDS011;33679;51.218;6.786;2023-05-10T03:52:13;8.40;;;5.70;;
10582;SDS011;33679;51.218;6.786;2023-05-10T03:54:47;7.10;;;4.73;;
10582;SDS011;33679;51.218;6.786;2023-05-10T03:57:20;6.60;;;5.20;;
10582;SDS011;33679;51.218;6.786;2023-05-10T03:59:52;7.93;;;5.27;;
10582;SDS011;33679;51.218;6.786;2023-05-10T04:02:24;8.20;;;5.17;;
10582;SDS011;33679;51.218;6.786;2023-05-10T04:04:57;8.67;;;5.90;;
10582;SDS011;33679;51.218;6.786;2023-05-10T04:07:32;10.93;;;5.93;;
10582;SDS011;33679;51.218;6.786;2023-05-10T04:10:09;9.97;;;5.90;;
10582;SDS011;33679;51.218;6.786;2023-05-10T04:12:41;9.97;;;5.90;;
10582;SDS011;33679;51.218;6.786;2023-05-10T04:15:14;9.17;;;6.33;;
10582;SDS011;33679;51.218;6.786;2023-05-10T04:17:48;10.63;;;6.77;;
10582;SDS011;33679;51.218;6.786;2023-05-10T04:20:21;13.03;;;7.40;;
10582;SDS011;33679;51.218;6.786;2023-05-10T04:22:54;12.60;;;7.50;;
10582;SDS011;33679;51.218;6.786;2023-05-10T04:25:28;12.60;;;7.83;;
10582;SDS011;33679;51.218;6.786;2023-05-10T04:28:00;11.97;;;7.57;;
10582;SDS011;33679;51.218;6.786;2023-05-10T04:30:32;16.33;;;9.23;;
10582;SDS011;33679;51.218;6.786;2023-05-10T04:33:05;15.40;;;8.97;;
10582;SDS011;33679;51.218;6.786;2023-05-10T04:35:37;14.37;;;8.50;;
10582;SDS011;33679;51.218;6.786;2023-05-10T04:38:10;14.40;;;9.10;;
10582;SDS011;33679;51.218;6.786;2023-05-10T04:40:44;16.57;;;9.60;;
10582;SDS011;33679;51.218;6.786;2023-05-10T04:43:20;12.60;;;7.67;;
10582;SDS011;33679;51.218;6.786;2023-05-10T04:45:52;15.13;;;8.50;;
10582;SDS011;33679;51.218;6.786;2023-05-10T04:48:28;16.53;;;9.70;;
10582;SDS011;33679;51.218;6.786;2023-05-10T04:51:00;15.07;;;9.20;;
10582;SDS011;33679;51.218;6.786;2023-05-10T04:53:34;18.20;;;10.10;;
10582;SDS011;33679;51.218;6.786;2023-05-10T04:56:07;16.17;;;9.50;;
10582;SDS011;33679;51.218;6.786;2023-05-10T04:58:40;17.13;;;10.13;;
10582;SDS011;33679;51.218;6.786;2023-05-10T05:01:12;17.60;;;10.97;;
10582;SDS011;33679;51.218;6.786;2023-05-10T05:03:44;20.37;;;10.47;;
10582;SDS011;33679;51.218;6.786;2023-05-10T05:06:16;15.63;;;10.10;;
10582;SDS011;33679;51.218;6.786;2023-05-10T05:08:49;16.40;;;10.20;;
10582;SDS011;33679;51.218;6.786;2023-05-10T05:11:22;21.03;;;11.20;;
10582;SDS011;33679;51.218;6.786;2023-05-10T05:13:55;16.07;;;9.83;;
10582;SDS011;33679;51.218;6.786;2023-05-10T05:16:30;21.30;;;11.37;;
10582;SDS011;33679;51.218;6.786;2023-05-10T05:19:02;14.03;;;8.47;;
10582;SDS011;33679;51.218;6.786;2023-05-10T05:21:34;19.33;;;8.90;;
10582;SDS011;33679;51.218;6.786;2023-05-10T05:24:09;14.57;;;8.57;;
10582;SDS011;33679;51.218;6.786;2023-05-10T05:26:44;17.73;;;10.23;;
10582;SDS011;33679;51.218;6.786;2023-05-10T05:29:16;13.93;;;9.03;;
10582;SDS011;33679;51.218;6.786;2023-05-10T05:31:48;16.60;;;8.90;;
10582;SDS011;33679;51.218;6.786;2023-05-10T05:34:21;17.80;;;11.23;;
10582;SDS011;33679;51.218;6.786;2023-05-10T05:36:53;17.20;;;9.53;;
10582;SDS011;33679;51.218;6.786;2023-05-10T05:39:25;17.97;;;10.17;;
10582;SDS011;33679;51.218;6.786;2023-05-10T05:41:59;12.40;;;8.00;;
10582;SDS011;33679;51.218;6.786;2023-05-10T05:44:31;15.53;;;10.23;;
10582;SDS011;33679;51.218;6.786;2023-05-10T05:47:03;15.37;;;8.00;;
10582;SDS011;33679;51.218;6.786;2023-05-10T05:49:36;14.20;;;7.70;;
10582;SDS011;33679;51.218;6.786;2023-05-10T05:52:09;11.03;;;7.80;;
10582;SDS011;33679;51.218;6.786;2023-05-10T05:54:41;16.60;;;7.93;;
10582;SDS011;33679;51.218;6.786;2023-05-10T05:57:15;14.33;;;8.80;;
10582;SDS011;33679;51.218;6.786;2023-05-10T05:59:48;14.43;;;7.60;;
10582;SDS011;33679;51.218;6.786;2023-05-10T06:02:20;11.00;;;7.27;;
10582;SDS011;33679;51.218;6.786;2023-05-10T06:04:53;14.00;;;8.13;;
10582;SDS011;33679;51.218;6.786;2023-05-10T06:07:26;15.53;;;8.67;;
10582;SDS011;33679;51.218;6.786;2023-05-10T06:09:59;11.43;;;8.07;;
10582;SDS011;33679;51.218;6.786;2023-05-10T06:12:34;11.20;;;7.83;;
10582;SDS011;33679;51.218;6.786;2023-05-10T06:15:07;13.33;;;7.77;;
10582;SDS011;33679;51.218;6.786;2023-05-10T06:17:41;17.20;;;9.10;;
10582;SDS011;33679;51.218;6.786;2023-05-10T06:20:14;19.70;;;8.53;;
10582;SDS011;33679;51.218;6.786;2023-05-10T06:22:48;13.03;;;8.20;;
10582;SDS011;33679;51.218;6.786;2023-05-10T06:25:20;14.37;;;8.10;;
10582;SDS011;33679;51.218;6.786;2023-05-10T06:27:54;15.83;;;8.80;;
10582;SDS011;33679;51.218;6.786;2023-05-10T06:30:28;15.20;;;8.20;;
10582;SDS011;33679;51.218;6.786;2023-05-10T06:33:00;13.73;;;8.60;;
10582;SDS011;33679;51.218;6.786;2023-05-10T06:35:32;23.20;;;15.00;;
10582;SDS011;33679;51.218;6.786;2023-05-10T06:38:05;23.97;;;15.63;;
10582;SDS011;33679;51.218;6.786;2023-05-10T06:40:40;18.90;;;10.40;;
10582;SDS011;33679;51.218;6.786;2023-05-10T06:43:14;18.57;;;8.73;;
10582;SDS011;33679;51.218;6.786;2023-05-10T06:45:47;16.30;;;9.73;;
10582;SDS011;33679;51.218;6.786;2023-05-10T06:48:19;16.20;;;7.90;;
10582;SDS011;33679;51.218;6.786;2023-05-10T06:50:52;20.13;;;9.23;;
10582;SDS011;33679;51.218;6.786;2023-05-10T06:53:24;20.33;;;8.17;;
10582;SDS011;33679;51.218;6.786;2023-05-10T06:55:56;19.60;;;10.40;;
10582;SDS011;33679;51.218;6.786;2023-05-10T06:58:30;18.73;;;11.10;;
10582;SDS011;33679;51.218;6.786;2023-05-10T07:01:03;16.63;;;10.47;;
10582;SDS011;33679;51.218;6.786;2023-05-10T07:03:37;17.60;;;9.03;;
10582;SDS011;33679;51.218;6.786;2023-05-10T07:06:09;17.77;;;9.53;;
10582;SDS011;33679;51.218;6.786;2023-05-10T07:08:42;18.00;;;10.30;;
10582;SDS011;33679;51.218;6.786;2023-05-10T07:11:14;22.93;;;10.80;;
10582;SDS011;33679;51.218;6.786;2023-05-10T07:13:48;17.13;;;10.70;;
10582;SDS011;33679;51.218;6.786;2023-05-10T07:16:21;18.13;;;9.90;;
10582;SDS011;33679;51.218;6.786;2023-05-10T07:18:53;17.03;;;9.53;;
10582;SDS011;33679;51.218;6.786;2023-05-10T07:21:28;21.03;;;9.30;;
10582;SDS011;33679;51.218;6.786;2023-05-10T07:24:01;21.13;;;9.50;;
10582;SDS011;33679;51.218;6.786;2023-05-10T07:26:34;15.67;;;8.10;;
10582;SDS011;33679;51.218;6.786;2023-05-10T07:29:08;19.83;;;11.67;;
10582;SDS011;33679;51.218;6.786;2023-05-10T07:31:40;16.73;;;9.43;;
10582;SDS011;33679;51.218;6.786;2023-05-10T07:34:13;15.93;;;9.27;;
10582;SDS011;33679;51.218;6.786;2023-05-10T07:36:45;9.00;;;6.23;;
10582;SDS011;33679;51.218;6.786;2023-05-10T07:39:20;15.43;;;8.23;;
10582;SDS011;33679;51.218;6.786;2023-05-10T07:41:52;14.07;;;6.77;;
10582;SDS011;33679;51.218;6.786;2023-05-10T07:44:25;13.57;;;7.47;;
10582;SDS011;33679;51.218;6.786;2023-05-10T07:47:00;12.37;;;7.30;;
10582;SDS011;33679;51.218;6.786;2023-05-10T07:49:32;16.43;;;6.53;;
10582;SDS011;33679;51.218;6.786;2023-05-10T07:52:06;12.93;;;7.93;;
10582;SDS011;33679;51.218;6.786;2023-05-10T07:54:38;11.20;;;7.20;;
10582;SDS011;33679;51.218;6.786;2023-05-10T07:57:11;21.03;;;10.00;;
10582;SDS011;33679;51.218;6.786;2023-05-10T07:59:46;23.50;;;11.73;;
10582;SDS011;33679;51.218;6.786;2023-05-10T08:02:18;19.43;;;11.17;;
10582;SDS011;33679;51.218;6.786;2023-05-10T08:04:55;40.50;;;21.07;;
10582;SDS011;33679;51.218;6.786;2023-05-10T08:07:27;24.70;;;13.53;;
10582;SDS011;33679;51.218;6.786;2023-05-10T08:10:01;29.80;;;13.60;;
10582;SDS011;33679;51.218;6.786;2023-05-10T08:12:34;28.17;;;14.43;;
10582;SDS011;33679;51.218;6.786;2023-05-10T08:15:08;32.27;;;14.83;;
10582;SDS011;33679;51.218;6.786;2023-05-10T08:17:41;27.53;;;14.83;;
10582;SDS011;33679;51.218;6.786;2023-05-10T08:20:14;42.37;;;17.80;;
10582;SDS011;33679;51.218;6.786;2023-05-10T08:22:49;40.67;;;21.80;;
10582;SDS011;33679;51.218;6.786;2023-05-10T08:25:21;33.33;;;16.63;;
10582;SDS011;33679;51.218;6.786;2023-05-10T08:27:56;34.63;;;16.60;;
10582;SDS011;33679;51.218;6.786;2023-05-10T08:30:29;33.50;;;17.00;;
10582;SDS011;33679;51.218;6.786;2023-05-10T08:33:02;37.03;;;16.50;;
10582;SDS011;33679;51.218;6.786;2023-05-10T08:35:34;29.23;;;14.80;;
10582;SDS011;33679;51.218;6.786;2023-05-10T08:38:06;28.43;;;16.23;;
10582;SDS011;33679;51.218;6.786;2023-05-10T08:40:39;28.03;;;15.27;;
10582;SDS011;33679;51.218;6.786;2023-05-10T08:43:14;24.40;;;13.40;;
10582;SDS011;33679;51.218;6.786;2023-05-10T08:45:47;26.17;;;14.37;;
10582;SDS011;33679;51.218;6.786;2023-05-10T08:48:24;29.57;;;14.70;;
10582;SDS011;33679;51.218;6.786;2023-05-10T08:50:57;26.30;;;14.80;;
10582;SDS011;33679;51.218;6.786;2023-05-10T08:53:33;35.20;;;19.10;;
10582;SDS011;33679;51.218;6.786;2023-05-10T08:56:07;24.90;;;13.73;;
10582;SDS011;33679;51.218;6.786;2023-05-10T08:58:40;31.20;;;15.47;;
10582;SDS011;33679;51.218;6.786;2023-05-10T09:01:14;26.77;;;14.23;;
10582;SDS011;33679;51.218;6.786;2023-05-10T09:03:49;25.27;;;13.43;;
10582;SDS011;33679;51.218;6.786;2023-05-10T09:06:24;25.67;;;13.97;;
10582;SDS011;33679;51.218;6.786;2023-05-10T09:08:59;27.77;;;14.37;;
10582;SDS011;33679;51.218;6.786;2023-05-10T09:11:31;23.53;;;12.17;;
10582;SDS011;33679;51.218;6.786;2023-05-10T09:14:04;21.57;;;10.57;;
10582;SDS011;33679;51.218;6.786;2023-05-10T09:16:37;20.50;;;10.40;;
10582;SDS011;33679;51.218;6.786;2023-05-10T09:19:12;18.70;;;10.63;;
10582;SDS011;33679;51.218;6.786;2023-05-10T09:21:44;20.33;;;10.70;;
10582;SDS011;33679;51.218;6.786;2023-05-10T09:24:16;16.30;;;9.60;;
10582;SDS011;33679;51.218;6.786;2023-05-10T09:26:49;20.57;;;10.63;;
10582;SDS011;33679;51.218;6.786;2023-05-10T09:29:21;19.90;;;11.50;;
10582;SDS011;33679;51.218;6.786;2023-05-10T09:31:55;18.80;;;11.93;;
10582;SDS011;33679;51.218;6.786;2023-05-10T09:34:28;15.93;;;9.80;;
10582;SDS011;33679;51.218;6.786;2023-05-10T09:37:03;17.23;;;10.83;;
10582;SDS011;33679;51.218;6.786;2023-05-10T09:39:35;16.20;;;10.00;;
10582;SDS011;33679;51.218;6.786;2023-05-10T09:42:09;14.73;;;9.00;;
10582;SDS011;33679;51.218;6.786;2023-05-10T09:44:41;18.23;;;9.97;;
10582;SDS011;33679;51.218;6.786;2023-05-10T09:47:18;15.50;;;9.30;;
10582;SDS011;33679;51.218;6.786;2023-05-10T09:49:51;12.30;;;8.33;;
10582;SDS011;33679;51.218;6.786;2023-05-10T09:52:26;16.57;;;8.53;;
10582;SDS011;33679;51.218;6.786;2023-05-10T09:54:58;14.80;;;9.20;;
10582;SDS011;33679;51.218;6.786;2023-05-10T09:57:30;14.27;;;8.00;;
10582;SDS011;33679;51.218;6.786;2023-05-10T10:00:06;13.57;;;8.10;;
10582;SDS011;33679;51.218;6.786;2023-05-10T10:02:53;18.10;;;9.10;;
10582;SDS011;33679;51.218;6.786;2023-05-10T10:05:29;14.43;;;8.80;;
10582;SDS011;33679;51.218;6.786;2023-05-10T10:08:03;22.10;;;13.20;;
10582;SDS011;33679;51.218;6.786;2023-05-10T10:10:36;21.27;;;11.47;;
10582;SDS011;33679;51.218;6.786;2023-05-10T10:13:09;17.23;;;9.80;;
10582;SDS011;33679;51.218;6.786;2023-05-10T10:15:42;12.70;;;8.73;;
10582;SDS011;33679;51.218;6.786;2023-05-10T10:18:16;17.80;;;9.10;;
10582;SDS011;33679;51.218;6.786;2023-05-10T10:20:53;15.00;;;8.90;;
10582;SDS011;33679;51.218;6.786;2023-05-10T10:23:26;16.47;;;9.20;;
10582;SDS011;33679;51.218;6.786;2023-05-10T10:25:59;17.57;;;10.17;;
10582;SDS011;33679;51.218;6.786;2023-05-10T10:28:34;14.37;;;8.90;;
10582;SDS011;33679;51.218;6.786;2023-05-10T10:31:13;14.37;;;8.37;;
10582;SDS011;33679;51.218;6.786;2023-05-10T10:33:59;18.63;;;8.50;;
10582;SDS011;33679;51.218;6.786;2023-05-10T10:36:39;17.40;;;8.07;;
10582;SDS011;33679;51.218;6.786;2023-05-10T10:39:14;11.40;;;8.30;;
10582;SDS011;33679;51.218;6.786;2023-05-10T10:41:51;11.10;;;7.77;;
10582;SDS011;33679;51.218;6.786;2023-05-10T10:44:37;10.30;;;7.17;;
10582;SDS011;33679;51.218;6.786;2023-05-10T10:47:21;14.13;;;8.00;;
10582;SDS011;33679;51.218;6.786;2023-05-10T10:50:04;16.73;;;7.80;;
10582;SDS011;33679;51.218;6.786;2023-05-10T10:52:38;11.73;;;7.70;;
10582;SDS011;33679;51.218;6.786;2023-05-10T10:55:12;10.20;;;6.70;;
10582;SDS011;33679;51.218;6.786;2023-05-10T10:57:47;12.27;;;7.13;;
10582;SDS011;33679;51.218;6.786;2023-05-10T11:00:23;10.67;;;7.20;;
10582;SDS011;33679;51.218;6.786;2023-05-10T11:02:58;14.73;;;8.27;;
10582;SDS011;33679;51.218;6.786;2023-05-10T11:05:36;21.70;;;12.37;;
10582;SDS011;33679;51.218;6.786;2023-05-10T11:08:11;23.00;;;14.37;;
10582;SDS011;33679;51.218;6.786;2023-05-10T11:10:53;18.47;;;10.30;;
10582;SDS011;33679;51.218;6.786;2023-05-10T11:13:37;16.70;;;10.20;;
10582;SDS011;33679;51.218;6.786;2023-05-10T11:16:16;14.70;;;9.40;;
10582;SDS011;33679;51.218;6.786;2023-05-10T11:18:59;16.03;;;9.63;;
10582;SDS011;33679;51.218;6.786;2023-05-10T11:21:44;16.67;;;9.50;;
10582;SDS011;33679;51.218;6.786;2023-05-10T11:24:26;15.67;;;9.33;;
10582;SDS011;33679;51.218;6.786;2023-05-10T11:26:59;17.70;;;9.90;;
10582;SDS011;33679;51.218;6.786;2023-05-10T11:29:31;17.80;;;10.63;;
10582;SDS011;33679;51.218;6.786;2023-05-10T11:32:04;16.53;;;9.70;;
10582;SDS011;33679;51.218;6.786;2023-05-10T11:34:38;18.70;;;11.00;;
10582;SDS011;33679;51.218;6.786;2023-05-10T11:37:14;18.57;;;11.10;;
10582;SDS011;33679;51.218;6.786;2023-05-10T11:39:46;14.70;;;9.80;;
10582;SDS011;33679;51.218;6.786;2023-05-10T11:42:19;20.37;;;13.30;;
10582;SDS011;33679;51.218;6.786;2023-05-10T11:44:53;18.13;;;11.23;;
10582;SDS011;33679;51.218;6.786;2023-05-10T11:47:26;21.90;;;11.00;;
10582;SDS011;33679;51.218;6.786;2023-05-10T11:49:58;13.50;;;8.50;;
10582;SDS011;33679;51.218;6.786;2023-05-10T11:52:36;13.53;;;9.23;;
10582;SDS011;33679;51.218;6.786;2023-05-10T11:55:09;13.00;;;8.37;;
10582;SDS011;33679;51.218;6.786;2023-05-10T11:57:41;12.20;;;8.20;;
10582;SDS011;33679;51.218;6.786;2023-05-10T12:00:16;14.07;;;9.30;;
10582;SDS011;33679;51.218;6.786;2023-05-10T12:02:49;14.93;;;9.37;;
10582;SDS011;33679;51.218;6.786;2023-05-10T12:05:22;19.53;;;13.63;;
10582;SDS011;33679;51.218;6.786;2023-05-10T12:10:43;14.40;;;9.23;;
10582;SDS011;33679;51.218;6.786;2023-05-10T12:13:16;16.40;;;8.80;;
10582;SDS011;33679;51.218;6.786;2023-05-10T12:15:49;20.10;;;8.80;;
10582;SDS011;33679;51.218;6.786;2023-05-10T12:18:22;16.27;;;9.50;;
10582;SDS011;33679;51.218;6.786;2023-05-10T12:20:55;15.40;;;10.57;;
10582;SDS011;33679;51.218;6.786;2023-05-10T12:23:37;14.33;;;9.50;;
10582;SDS011;33679;51.218;6.786;2023-05-10T12:26:09;15.80;;;9.33;;
10582;SDS011;33679;51.218;6.786;2023-05-10T12:28:42;17.13;;;10.20;;
10582;SDS011;33679;51.218;6.786;2023-05-10T12:31:15;16.23;;;10.17;;
10582;SDS011;33679;51.218;6.786;2023-05-10T12:33:47;14.20;;;10.50;;
10582;SDS011;33679;51.218;6.786;2023-05-10T12:36:22;14.37;;;8.93;;
10582;SDS011;33679;51.218;6.786;2023-05-10T12:39:03;19.60;;;10.50;;
10582;SDS011;33679;51.218;6.786;2023-05-10T12:41:36;14.50;;;9.77;;
10582;SDS011;33679;51.218;6.786;2023-05-10T12:44:08;18.50;;;11.00;;
10582;SDS011;33679;51.218;6.786;2023-05-10T12:46:41;15.17;;;9.43;;
10582;SDS011;33679;51.218;6.786;2023-05-10T12:49:13;18.90;;;9.23;;
10582;SDS011;33679;51.218;6.786;2023-05-10T12:51:45;14.10;;;9.27;;
10582;SDS011;33679;51.218;6.786;2023-05-10T12:54:19;15.27;;;10.27;;
10582;SDS011;33679;51.218;6.786;2023-05-10T12:56:51;17.37;;;9.40;;
10582;SDS011;33679;51.218;6.786;2023-05-10T12:59:24;15.70;;;9.80;;
10582;SDS011;33679;51.218;6.786;2023-05-10T13:01:56;17.17;;;10.87;;
10582;SDS011;33679;51.218;6.786;2023-05-10T13:04:31;16.50;;;9.83;;
10582;SDS011;33679;51.218;6.786;2023-05-10T13:07:07;16.83;;;9.83;;
10582;SDS011;33679;51.218;6.786;2023-05-10T13:09:41;16.50;;;10.97;;
10582;SDS011;33679;51.218;6.786;2023-05-10T13:12:14;15.57;;;9.80;;
10582;SDS011;33679;51.218;6.786;2023-05-10T13:14:46;15.70;;;10.20;;
10582;SDS011;33679;51.218;6.786;2023-05-10T13:17:18;23.40;;;13.90;;
10582;SDS011;33679;51.218;6.786;2023-05-10T13:19:51;15.73;;;8.97;;
10582;SDS011;33679;51.218;6.786;2023-05-10T13:22:23;16.00;;;8.43;;
10582;SDS011;33679;51.218;6.786;2023-05-10T13:24:57;14.00;;;8.30;;
10582;SDS011;33679;51.218;6.786;2023-05-10T13:27:32;16.47;;;9.40;;
10582;SDS011;33679;51.218;6.786;2023-05-10T13:30:04;14.07;;;8.73;;
10582;SDS011;33679;51.218;6.786;2023-05-10T13:32:40;10.33;;;7.60;;
10582;SDS011;33679;51.218;6.786;2023-05-10T13:35:12;12.23;;;7.40;;
10582;SDS011;33679;51.218;6.786;2023-05-10T13:37:45;10.83;;;7.63;;
10582;SDS011;33679;51.218;6.786;2023-05-10T13:40:19;13.43;;;8.43;;
10582;SDS011;33679;51.218;6.786;2023-05-10T13:42:51;10.97;;;7.60;;
10582;SDS011;33679;51.218;6.786;2023-05-10T13:45:24;14.07;;;8.50;;
10582;SDS011;33679;51.218;6.786;2023-05-10T13:47:57;11.10;;;7.00;;
10582;SDS011;33679;51.218;6.786;2023-05-10T13:50:29;12.30;;;8.07;;
10582;SDS011;33679;51.218;6.786;2023-05-10T13:53:01;16.20;;;8.90;;
10582;SDS011;33679;51.218;6.786;2023-05-10T13:55:35;15.70;;;7.70;;
10582;SDS011;33679;51.218;6.786;2023-05-10T13:58:08;9.80;;;7.13;;
10582;SDS011;33679;51.218;6.786;2023-05-10T14:00:41;12.43;;;8.10;;
10582;SDS011;33679;51.218;6.786;2023-05-10T14:03:13;11.73;;;7.67;;
10582;SDS011;33679;51.218;6.786;2023-05-10T14:05:46;9.50;;;7.03;;
10582;SDS011;33679;51.218;6.786;2023-05-10T14:08:18;11.67;;;7.97;;
10582;SDS011;33679;51.218;6.786;2023-05-10T14:10:52;12.70;;;7.70;;
10582;SDS011;33679;51.218;6.786;2023-05-10T14:13:29;22.13;;;15.63;;
10582;SDS011;33679;51.218;6.786;2023-05-10T14:16:03;15.70;;;9.43;;
10582;SDS011;33679;51.218;6.786;2023-05-10T14:18:35;11.50;;;7.53;;
10582;SDS011;33679;51.218;6.786;2023-05-10T14:21:08;12.00;;;7.33;;
10582;SDS011;33679;51.218;6.786;2023-05-10T14:23:40;11.80;;;7.30;;
10582;SDS011;33679;51.218;6.786;2023-05-10T14:26:14;10.97;;;6.70;;
10582;SDS011;33679;51.218;6.786;2023-05-10T14:28:49;10.67;;;7.20;;
10582;SDS011;33679;51.218;6.786;2023-05-10T14:31:22;9.40;;;5.83;;
10582;SDS011;33679;51.218;6.786;2023-05-10T14:33:55;8.17;;;5.00;;
10582;SDS011;33679;51.218;6.786;2023-05-10T14:36:29;9.10;;;5.90;;
10582;SDS011;33679;51.218;6.786;2023-05-10T14:39:02;10.10;;;6.00;;
10582;SDS011;33679;51.218;6.786;2023-05-10T14:41:36;10.73;;;5.90;;
10582;SDS011;33679;51.218;6.786;2023-05-10T14:44:11;17.27;;;12.37;;
10582;SDS011;33679;51.218;6.786;2023-05-10T14:46:43;11.93;;;7.10;;
10582;SDS011;33679;51.218;6.786;2023-05-10T14:49:17;7.00;;;4.80;;
10582;SDS011;33679;51.218;6.786;2023-05-10T14:51:53;6.10;;;4.20;;
10582;SDS011;33679;51.218;6.786;2023-05-10T14:54:25;5.60;;;4.27;;
10582;SDS011;33679;51.218;6.786;2023-05-10T14:56:59;8.27;;;4.70;;
10582;SDS011;33679;51.218;6.786;2023-05-10T14:59:32;10.70;;;4.40;;
10582;SDS011;33679;51.218;6.786;2023-05-10T15:02:04;5.00;;;3.87;;
10582;SDS011;33679;51.218;6.786;2023-05-10T15:04:38;6.30;;;4.23;;
10582;SDS011;33679;51.218;6.786;2023-05-10T15:07:11;6.93;;;5.33;;
10582;SDS011;33679;51.218;6.786;2023-05-10T15:09:47;8.93;;;4.40;;
10582;SDS011;33679;51.218;6.786;2023-05-10T15:12:21;5.20;;;3.47;;
10582;SDS011;33679;51.218;6.786;2023-05-10T15:14:55;6.03;;;4.27;;
10582;SDS011;33679;51.218;6.786;2023-05-10T15:17:28;5.60;;;3.93;;
10582;SDS011;33679;51.218;6.786;2023-05-10T15:20:03;8.10;;;5.40;;